createdAt,value
2018-09-18T00:00:09.403Z,7.60
2018-09-18T00:02:41.900Z,6.78
2018-09-18T00:05:12.891Z,6.15
2018-09-18T00:07:43.750Z,6.28
2018-09-18T00:10:14.659Z,6.97
2018-09-18T00:12:44.649Z,6.20
2018-09-18T00:15:15.704Z,6.45
2018-09-18T00:17:46.696Z,6.37
2018-09-18T00:20:16.742Z,6.10
2018-09-18T00:22:47.475Z,6.70
2018-09-18T00:25:18.494Z,6.78
2018-09-18T00:27:48.768Z,6.78
2018-09-18T00:30:18.951Z,6.25
2018-09-18T00:32:49.993Z,6.80
2018-09-18T00:35:20.252Z,6.75
2018-09-18T00:37:52.167Z,6.83
2018-09-18T00:40:23.836Z,7.67
2018-09-18T00:42:54.174Z,7.80
2018-09-18T00:45:24.282Z,7.00
2018-09-18T00:47:55.964Z,6.87
2018-09-18T00:50:26.207Z,6.70
2018-09-18T00:52:58.925Z,6.47
2018-09-18T00:55:30.321Z,5.95
2018-09-18T00:58:01.985Z,6.05
2018-09-18T01:00:31.949Z,5.55
2018-09-18T01:03:02.780Z,5.78
2018-09-18T01:05:34.384Z,5.15
2018-09-18T01:08:04.199Z,5.85
2018-09-18T01:10:34.542Z,5.50
2018-09-18T01:13:06.053Z,5.50
2018-09-18T01:15:37.381Z,5.25
2018-09-18T01:18:07.346Z,5.55
2018-09-18T01:20:37.950Z,5.45
2018-09-18T01:23:07.969Z,5.40
2018-09-18T01:25:37.912Z,5.22
2018-09-18T01:28:07.975Z,5.33
2018-09-18T01:30:39.677Z,5.50
2018-09-18T01:33:11.316Z,5.10
2018-09-18T01:35:43.941Z,5.10
2018-09-18T01:38:15.589Z,5.60
2018-09-18T01:40:46.606Z,5.28
2018-09-18T01:43:18.955Z,4.83
2018-09-18T01:45:50.897Z,5.12
2018-09-18T01:48:21.003Z,5.08
2018-09-18T01:50:51.543Z,5.10
2018-09-18T01:53:21.533Z,5.33
2018-09-18T01:55:53.701Z,5.20
2018-09-18T01:58:24.595Z,5.15
2018-09-18T02:00:56.529Z,5.15
2018-09-18T02:03:30.029Z,5.58
2018-09-18T02:06:03.401Z,5.80
2018-09-18T02:08:33.741Z,5.30
2018-09-18T02:11:03.553Z,5.62
2018-09-18T02:13:33.500Z,4.92
2018-09-18T02:16:03.624Z,5.40
2018-09-18T02:18:33.416Z,5.60
2018-09-18T02:21:04.618Z,5.70
2018-09-18T02:23:35.338Z,5.50
2018-09-18T02:26:06.542Z,5.35
2018-09-18T02:28:38.705Z,6.00
2018-09-18T02:31:08.650Z,6.12
2018-09-18T02:33:39.979Z,6.28
2018-09-18T02:36:10.100Z,6.53
2018-09-18T02:38:40.147Z,6.12
2018-09-18T02:41:10.651Z,6.08
2018-09-18T02:43:42.093Z,6.08
2018-09-18T02:46:12.734Z,7.30
2018-09-18T02:48:43.764Z,7.20
2018-09-18T02:51:15.189Z,5.92
2018-09-18T02:53:46.077Z,6.53
2018-09-18T02:56:15.806Z,7.22
2018-09-18T02:58:45.886Z,5.83
2018-09-18T03:01:16.014Z,6.03
2018-09-18T03:03:47.063Z,6.12
2018-09-18T03:06:16.868Z,6.33
2018-09-18T03:08:48.269Z,5.95
2018-09-18T03:11:18.777Z,6.67
2018-09-18T03:13:48.560Z,6.60
2018-09-18T03:16:20.742Z,6.75
2018-09-18T03:18:51.438Z,6.85
2018-09-18T03:21:22.409Z,7.22
2018-09-18T03:23:53.361Z,7.20
2018-09-18T03:26:23.159Z,7.15
2018-09-18T03:28:53.048Z,7.08
2018-09-18T03:31:24.627Z,7.65
2018-09-18T03:33:54.614Z,6.87
2018-09-18T03:36:26.411Z,7.10
2018-09-18T03:38:57.932Z,6.92
2018-09-18T03:41:29.725Z,7.87
2018-09-18T03:44:00.382Z,7.10
2018-09-18T03:46:32.716Z,6.75
2018-09-18T03:49:03.304Z,7.90
2018-09-18T03:51:34.457Z,7.22
2018-09-18T03:54:04.285Z,7.72
2018-09-18T03:56:34.390Z,7.10
2018-09-18T03:59:06.143Z,7.30
2018-09-18T04:01:36.166Z,8.40
2018-09-18T04:04:06.079Z,8.23
2018-09-18T04:06:37.355Z,7.75
2018-09-18T04:09:10.665Z,7.87
2018-09-18T04:11:41.281Z,7.80
2018-09-18T04:14:12.199Z,8.40
2018-09-18T04:16:44.827Z,7.60
2018-09-18T04:19:14.775Z,8.35
2018-09-18T04:21:44.973Z,8.35
2018-09-18T04:24:16.140Z,8.15
2018-09-18T04:26:46.875Z,8.08
2018-09-18T04:29:17.096Z,8.30
2018-09-18T04:31:59.386Z,8.28
2018-09-18T04:34:29.417Z,8.25
2018-09-18T04:36:59.642Z,8.30
2018-09-18T04:39:29.713Z,11.15
2018-09-18T04:42:01.520Z,8.40
2018-09-18T04:44:32.320Z,8.53
2018-09-18T04:47:03.056Z,8.30
2018-09-18T04:49:34.438Z,8.45
2018-09-18T04:52:05.724Z,8.05
2018-09-18T04:54:36.929Z,9.63
2018-09-18T04:57:06.907Z,8.75
2018-09-18T04:59:36.871Z,8.98
2018-09-18T05:02:07.253Z,10.03
2018-09-18T05:04:37.819Z,10.98
2018-09-18T05:07:07.827Z,9.15
2018-09-18T05:09:39.111Z,8.85
2018-09-18T05:12:09.182Z,9.23
2018-09-18T05:14:39.197Z,8.48
2018-09-18T05:17:09.114Z,9.43
2018-09-18T05:19:39.034Z,9.85
2018-09-18T05:22:10.572Z,14.47
2018-09-18T05:24:43.893Z,9.48
2018-09-18T05:27:14.041Z,8.85
2018-09-18T05:29:44.217Z,9.48
2018-09-18T05:32:14.742Z,9.33
2018-09-18T05:34:46.130Z,9.00
2018-09-18T05:37:18.057Z,10.58
2018-09-18T05:39:47.985Z,13.93
2018-09-18T05:42:19.832Z,9.38
2018-09-18T05:44:50.479Z,9.83
2018-09-18T05:47:21.522Z,10.18
2018-09-18T05:49:52.543Z,10.95
2018-09-18T05:52:23.069Z,9.60
2018-09-18T05:54:57.353Z,9.48
2018-09-18T05:57:27.625Z,9.35
2018-09-18T05:59:57.621Z,9.05
2018-09-18T06:02:28.868Z,8.53
2018-09-18T06:04:59.010Z,20.17
2018-09-18T06:07:30.575Z,10.30
2018-09-18T06:10:01.101Z,9.78
2018-09-18T06:12:31.523Z,9.83
2018-09-18T06:15:01.823Z,9.08
2018-09-18T06:17:31.896Z,9.45
2018-09-18T06:20:04.419Z,9.15
2018-09-18T06:22:35.038Z,10.45
2018-09-18T06:27:45.941Z,9.68
2018-09-18T06:30:18.424Z,8.18
2018-09-18T06:32:49.659Z,9.75
2018-09-18T06:35:19.665Z,12.82
2018-09-18T06:37:50.017Z,9.40
2018-09-18T06:40:22.770Z,9.08
2018-09-18T06:42:54.049Z,8.63
2018-09-18T06:45:26.729Z,8.13
2018-09-18T06:47:57.689Z,7.65
2018-09-18T06:50:28.027Z,8.30
2018-09-18T06:52:57.981Z,8.50
2018-09-18T06:55:29.024Z,7.50
2018-09-18T06:57:59.997Z,8.40
2018-09-18T07:00:30.001Z,7.62
2018-09-18T07:03:01.022Z,8.00
2018-09-18T07:07:30.726Z,8.05
2018-09-18T07:10:01.166Z,7.90
2018-09-18T07:12:31.518Z,7.20
2018-09-18T07:15:02.042Z,6.72
2018-09-18T07:17:32.481Z,6.80
2018-09-18T07:20:03.119Z,7.17
2018-09-18T07:22:34.018Z,6.65
2018-09-18T07:25:05.075Z,7.20
2018-09-18T07:27:37.418Z,7.42
2018-09-18T07:30:09.479Z,7.78
2018-09-18T07:32:39.552Z,7.65
2018-09-18T07:35:10.279Z,8.80
2018-09-18T07:37:41.421Z,8.28
2018-09-18T07:40:13.098Z,9.15
2018-09-18T07:42:43.124Z,12.05
2018-09-18T07:45:13.767Z,9.95
2018-09-18T07:47:44.923Z,9.50
2018-09-18T07:50:15.853Z,9.50
2018-09-18T07:52:49.691Z,9.48
2018-09-18T07:55:19.676Z,12.33
2018-09-18T07:57:49.996Z,18.65
2018-09-18T08:00:20.231Z,15.10
2018-09-18T08:02:51.054Z,12.75
2018-09-18T08:05:21.199Z,9.05
2018-09-18T08:07:57.614Z,7.05
2018-09-18T08:10:30.293Z,7.35
2018-09-18T08:13:00.346Z,6.75
2018-09-18T08:15:31.058Z,6.62
2018-09-18T08:18:02.185Z,6.60
2018-09-18T08:20:32.434Z,6.50
2018-09-18T08:23:02.963Z,6.72
2018-09-18T08:25:33.956Z,6.12
2018-09-18T08:28:05.017Z,6.10
2018-09-18T08:30:35.115Z,5.92
2018-09-18T08:33:06.237Z,5.80
2018-09-18T08:35:36.629Z,5.42
2018-09-18T08:38:06.768Z,6.20
2018-09-18T08:40:36.718Z,6.05
2018-09-18T08:43:06.670Z,5.87
2018-09-18T08:45:37.833Z,6.25
2018-09-18T08:48:08.182Z,5.72
2018-09-18T08:50:38.398Z,5.90
2018-09-18T08:53:08.899Z,5.37
2018-09-18T08:55:38.927Z,6.03
2018-09-18T08:58:10.055Z,5.22
2018-09-18T09:00:40.803Z,4.80
2018-09-18T09:03:12.092Z,5.08
2018-09-18T09:05:44.444Z,5.58
2018-09-18T09:08:14.936Z,5.70
2018-09-18T09:10:44.888Z,5.40
2018-09-18T09:13:15.935Z,4.92
2018-09-18T09:15:46.097Z,5.37
2018-09-18T09:18:17.045Z,5.25
2018-09-18T09:20:47.498Z,4.78
2018-09-18T09:23:18.550Z,5.25
2018-09-18T09:25:48.517Z,5.17
2018-09-18T09:28:19.051Z,4.92
2018-09-18T09:30:49.628Z,4.85
2018-09-18T09:33:19.673Z,6.20
2018-09-18T09:35:50.223Z,4.85
2018-09-18T09:38:20.555Z,5.10
2018-09-18T09:40:50.730Z,5.30
2018-09-18T09:43:22.478Z,5.50
2018-09-18T09:45:53.389Z,5.53
2018-09-18T09:48:25.455Z,5.17
2018-09-18T09:50:59.592Z,5.30
2018-09-18T09:53:29.590Z,5.92
2018-09-18T09:55:59.643Z,5.05
2018-09-18T09:58:29.756Z,5.40
2018-09-18T10:01:05.024Z,5.80
2018-09-18T10:03:35.587Z,5.10
2018-09-18T10:06:06.538Z,5.33
2018-09-18T10:08:36.587Z,5.75
2018-09-18T10:11:06.720Z,5.58
2018-09-18T10:13:43.164Z,5.40
2018-09-18T10:16:14.013Z,5.65
2018-09-18T10:18:47.282Z,5.53
2018-09-18T10:21:18.238Z,5.33
2018-09-18T10:23:48.634Z,5.90
2018-09-18T10:26:19.525Z,5.50
2018-09-18T10:28:49.521Z,5.72
2018-09-18T10:31:19.781Z,5.65
2018-09-18T10:33:52.704Z,5.87
2018-09-18T10:36:23.328Z,4.70
2018-09-18T10:38:53.374Z,5.17
2018-09-18T10:41:25.669Z,6.03
2018-09-18T10:43:56.648Z,8.43
2018-09-18T10:46:27.135Z,5.60
2018-09-18T10:48:58.153Z,5.33
2018-09-18T10:51:28.531Z,5.65
2018-09-18T10:53:59.137Z,5.58
2018-09-18T10:56:29.418Z,5.90
2018-09-18T10:59:00.211Z,5.50
2018-09-18T11:01:32.415Z,5.70
2018-09-18T11:04:02.357Z,5.22
2018-09-18T11:06:33.066Z,6.10
2018-09-18T11:09:03.275Z,5.67
2018-09-18T11:11:33.217Z,5.58
2018-09-18T11:14:03.411Z,6.83
2018-09-18T11:16:33.993Z,4.80
2018-09-18T11:19:05.128Z,6.05
2018-09-18T11:21:37.107Z,5.62
2018-09-18T11:24:12.296Z,4.67
2018-09-18T11:26:42.355Z,5.17
2018-09-18T11:29:13.133Z,4.70
2018-09-18T11:31:47.203Z,5.05
2018-09-18T11:34:17.428Z,4.75
2018-09-18T11:36:47.645Z,4.97
2018-09-18T11:39:18.417Z,4.90
2018-09-18T11:41:49.161Z,4.85
2018-09-18T11:44:19.332Z,4.95
2018-09-18T11:46:52.306Z,4.78
2018-09-18T11:49:23.703Z,5.35
2018-09-18T11:51:54.524Z,5.40
2018-09-18T11:54:24.565Z,5.00
2018-09-18T11:56:56.429Z,5.03
2018-09-18T11:59:26.471Z,4.95
2018-09-18T12:01:56.642Z,5.03
2018-09-18T12:04:26.577Z,4.78
2018-09-18T12:06:56.889Z,4.55
2018-09-18T12:09:26.837Z,4.85
2018-09-18T12:11:56.804Z,4.35
2018-09-18T12:14:27.944Z,4.95
2018-09-18T12:16:58.315Z,5.12
2018-09-18T12:19:28.694Z,5.35
2018-09-18T12:21:58.575Z,5.08
2018-09-18T12:24:29.925Z,4.37
2018-09-18T12:27:01.047Z,3.42
2018-09-18T12:29:31.687Z,4.87
2018-09-18T12:32:02.055Z,5.10
2018-09-18T12:34:31.992Z,3.62
2018-09-18T12:37:02.007Z,5.22
2018-09-18T12:39:32.569Z,4.95
2018-09-18T12:42:02.844Z,5.22
2018-09-18T12:44:32.939Z,4.92
2018-09-18T12:47:03.295Z,4.90
2018-09-18T12:49:34.176Z,5.12
2018-09-18T12:52:04.898Z,4.95
2018-09-18T12:54:35.753Z,5.15
2018-09-18T12:57:06.061Z,3.80
2018-09-18T12:59:35.967Z,4.80
2018-09-18T13:02:05.970Z,3.50
2018-09-18T13:04:38.601Z,5.20
2018-09-18T13:07:09.783Z,5.47
2018-09-18T13:09:40.125Z,4.58
2018-09-18T13:12:11.466Z,5.03
2018-09-18T13:14:42.856Z,4.55
2018-09-18T13:17:13.247Z,3.80
2018-09-18T13:19:45.323Z,5.03
2018-09-18T13:22:15.891Z,5.03
2018-09-18T13:24:46.020Z,5.08
2018-09-18T13:27:16.487Z,2.72
2018-09-18T13:29:47.863Z,4.97
2018-09-18T13:32:19.253Z,5.20
2018-09-18T13:34:52.284Z,5.00
2018-09-18T13:37:22.855Z,5.58
2018-09-18T13:39:53.804Z,5.08
2018-09-18T13:42:23.949Z,5.10
2018-09-18T13:44:56.660Z,5.30
2018-09-18T13:47:28.146Z,5.50
2018-09-18T13:49:58.789Z,4.97
2018-09-18T13:52:29.316Z,4.65
2018-09-18T13:55:00.073Z,5.10
2018-09-18T13:57:30.106Z,4.10
2018-09-18T14:00:00.272Z,4.62
2018-09-18T14:02:31.663Z,4.42
2018-09-18T14:05:01.858Z,3.67
2018-09-18T14:07:32.747Z,4.58
2018-09-18T14:10:03.823Z,5.10
2018-09-18T14:12:34.892Z,4.83
2018-09-18T14:15:09.634Z,4.50
2018-09-18T14:17:39.820Z,5.10
2018-09-18T14:20:12.484Z,4.78
2018-09-18T14:22:42.946Z,4.50
2018-09-18T14:25:16.179Z,4.12
2018-09-18T14:27:48.028Z,5.08
2018-09-18T14:30:20.286Z,4.87
2018-09-18T14:32:51.653Z,3.92
2018-09-18T14:35:23.990Z,4.70
2018-09-18T14:37:54.204Z,4.65
2018-09-18T14:40:24.226Z,4.70
2018-09-18T14:42:56.237Z,5.12
2018-09-18T14:45:27.061Z,4.45
2018-09-18T14:47:57.183Z,3.40
2018-09-18T14:50:28.511Z,5.12
2018-09-18T14:52:59.276Z,4.85
2018-09-18T14:55:35.170Z,5.42
2018-09-18T14:58:05.959Z,5.00
2018-09-18T15:00:37.316Z,4.05
2018-09-18T15:03:07.926Z,4.45
2018-09-18T15:05:38.038Z,4.87
2018-09-18T15:08:08.411Z,4.45
2018-09-18T15:10:38.713Z,5.15
2018-09-18T15:13:08.800Z,4.70
2018-09-18T15:15:39.487Z,5.03
2018-09-18T15:18:09.691Z,5.00
2018-09-18T15:20:40.149Z,5.30
2018-09-18T15:23:10.692Z,5.03
2018-09-18T15:25:40.831Z,5.22
2018-09-18T15:28:10.758Z,5.47
2018-09-18T15:30:40.900Z,4.78
2018-09-18T15:33:10.955Z,4.80
2018-09-18T15:35:42.479Z,5.08
2018-09-18T15:38:13.976Z,5.35
2018-09-18T15:40:44.901Z,4.92
2018-09-18T15:43:15.808Z,4.90
2018-09-18T15:45:49.911Z,6.25
2018-09-18T15:48:19.948Z,4.40
2018-09-18T15:50:51.025Z,4.83
2018-09-18T15:53:22.222Z,4.83
2018-09-18T15:55:53.345Z,5.10
2018-09-18T15:58:25.031Z,4.97
2018-09-18T16:00:55.382Z,4.03
2018-09-18T16:03:27.509Z,4.55
2018-09-18T16:05:57.743Z,4.60
2018-09-18T16:08:27.662Z,4.83
2018-09-18T16:13:42.215Z,5.90
2018-09-18T16:16:12.368Z,5.62
2018-09-18T16:18:42.574Z,3.25
2018-09-18T16:21:13.195Z,6.85
2018-09-18T16:23:45.615Z,6.95
2018-09-18T16:26:17.776Z,7.25
2018-09-18T16:28:47.992Z,4.10
2018-09-18T16:31:18.789Z,6.72
2018-09-18T16:33:48.713Z,7.15
2018-09-18T16:36:19.334Z,8.08
2018-09-18T16:38:49.293Z,8.25
2018-09-18T16:41:19.277Z,9.23
2018-09-18T16:43:50.226Z,7.72
2018-09-18T16:46:20.887Z,10.45
2018-09-18T16:48:51.059Z,10.53
2018-09-18T16:51:21.059Z,10.05
2018-09-18T16:53:51.108Z,9.43
2018-09-18T16:56:21.050Z,9.58
2018-09-18T16:58:51.078Z,12.50
2018-09-18T17:01:22.372Z,10.82
2018-09-18T17:03:52.696Z,12.35
2018-09-18T17:06:22.786Z,8.48
2018-09-18T17:08:56.148Z,12.60
2018-09-18T17:11:26.233Z,11.75
2018-09-18T17:13:57.937Z,12.45
2018-09-18T17:16:28.159Z,11.78
2018-09-18T17:18:58.669Z,12.50
2018-09-18T17:21:34.841Z,10.13
2018-09-18T17:24:05.956Z,12.43
2018-09-18T17:26:36.134Z,12.45
2018-09-18T17:29:06.873Z,12.18
2018-09-18T17:31:36.763Z,12.10
2018-09-18T17:34:07.544Z,11.45
2018-09-18T17:36:39.684Z,12.60
2018-09-18T17:39:12.283Z,13.98
2018-09-18T17:41:42.535Z,13.72
2018-09-18T17:44:12.600Z,11.93
2018-09-18T17:46:43.795Z,13.28
2018-09-18T17:49:13.993Z,12.73
2018-09-18T17:51:44.216Z,11.75
2018-09-18T17:54:14.269Z,12.78
2018-09-18T17:56:44.953Z,12.93
2018-09-18T17:59:16.106Z,10.85
2018-09-18T18:01:46.197Z,11.10
2018-09-18T18:04:16.760Z,10.93
2018-09-18T18:06:48.036Z,11.68
2018-09-18T18:09:19.598Z,11.28
2018-09-18T18:11:51.578Z,10.78
2018-09-18T18:14:22.185Z,11.30
2018-09-18T18:16:53.679Z,10.05
2018-09-18T18:19:24.364Z,9.83
2018-09-18T18:21:54.924Z,9.10
2018-09-18T18:24:25.392Z,8.63
2018-09-18T18:26:55.243Z,8.63
2018-09-18T18:29:25.659Z,7.53
2018-09-18T18:31:55.716Z,8.35
2018-09-18T18:37:04.917Z,7.20
2018-09-18T18:39:35.008Z,7.65
2018-09-18T18:42:05.533Z,4.00
2018-09-18T18:44:35.721Z,8.30
2018-09-18T18:47:06.494Z,10.25
2018-09-18T18:49:37.962Z,5.50
2018-09-18T18:52:10.699Z,6.28
2018-09-18T18:54:42.644Z,6.83
2018-09-18T18:57:13.237Z,6.65
2018-09-18T18:59:44.152Z,6.70
2018-09-18T19:02:17.118Z,6.60
2018-09-18T19:04:47.182Z,7.08
2018-09-18T19:07:17.043Z,4.72
2018-09-18T19:09:47.895Z,6.25
2018-09-18T19:12:18.082Z,6.00
2018-09-18T19:14:48.444Z,5.87
2018-09-18T19:17:19.119Z,4.40
2018-09-18T19:19:51.520Z,6.47
2018-09-18T19:22:23.775Z,6.25
2018-09-18T19:24:54.548Z,7.50
2018-09-18T19:27:26.058Z,6.17
2018-09-18T19:30:02.408Z,6.62
2018-09-18T19:32:33.149Z,6.90
2018-09-18T19:35:05.937Z,6.75
2018-09-18T19:37:40.333Z,7.00
2018-09-18T19:40:12.524Z,6.58
2018-09-18T19:42:44.451Z,7.15
2018-09-18T19:45:14.715Z,7.08
2018-09-18T19:47:47.268Z,7.03
2018-09-18T19:50:19.966Z,6.67
2018-09-18T19:52:51.184Z,6.67
2018-09-18T19:55:21.184Z,6.50
2018-09-18T19:57:51.445Z,7.05
2018-09-18T20:00:22.588Z,6.20
2018-09-18T20:02:53.291Z,5.35
2018-09-18T20:05:23.920Z,6.67
2018-09-18T20:07:55.688Z,5.90
2018-09-18T20:10:26.712Z,7.03
2018-09-18T20:12:57.572Z,6.37
2018-09-18T20:15:27.556Z,7.05
2018-09-18T20:17:57.529Z,7.15
2018-09-18T20:20:27.796Z,6.72
2018-09-18T20:22:58.306Z,6.78
2018-09-18T20:25:29.707Z,7.05
2018-09-18T20:27:59.642Z,6.70
2018-09-18T20:30:31.511Z,6.92
2018-09-18T20:33:02.783Z,5.97
2018-09-18T20:35:34.849Z,5.72
2018-09-18T20:38:04.857Z,5.72
2018-09-18T20:40:34.999Z,5.97
2018-09-18T20:43:06.141Z,5.58
2018-09-18T20:48:14.379Z,5.72
2018-09-18T20:50:44.438Z,5.70
2018-09-18T20:53:14.525Z,6.15
2018-09-18T20:55:44.514Z,5.53
2018-09-18T20:58:14.530Z,5.12
2018-09-18T21:00:44.402Z,5.50
2018-09-18T21:03:14.344Z,5.97
2018-09-18T21:05:44.364Z,5.90
2018-09-18T21:08:14.858Z,5.20
2018-09-18T21:10:45.020Z,5.00
2018-09-18T21:13:15.055Z,5.37
2018-09-18T21:15:45.326Z,5.53
2018-09-18T21:18:15.367Z,6.40
2018-09-18T21:20:46.122Z,5.78
2018-09-18T21:23:16.921Z,4.50
2018-09-18T21:26:19.558Z,5.60
2018-09-18T21:28:51.086Z,5.20
2018-09-18T21:31:22.757Z,5.42
2018-09-18T21:33:53.679Z,4.83
2018-09-18T21:36:25.631Z,5.20
2018-09-18T21:38:56.794Z,5.40
2018-09-18T21:41:26.986Z,5.33
2018-09-18T21:43:57.694Z,4.78
2018-09-18T21:46:27.884Z,4.28
2018-09-18T21:48:57.839Z,4.75
2018-09-18T21:51:30.188Z,5.30
2018-09-18T21:54:00.223Z,4.70
2018-09-18T21:56:30.280Z,4.53
2018-09-18T21:59:00.184Z,4.53
2018-09-18T22:01:31.004Z,4.53
2018-09-18T22:04:00.985Z,5.03
2018-09-18T22:06:31.095Z,5.10
2018-09-18T22:09:01.904Z,4.60
2018-09-18T22:11:33.240Z,5.20
2018-09-18T22:14:03.724Z,4.62
2018-09-18T22:16:34.155Z,5.12
2018-09-18T22:19:05.065Z,4.97
2018-09-18T22:21:35.118Z,4.90
2018-09-18T22:24:05.713Z,4.80
2018-09-18T22:26:35.565Z,4.72
2018-09-18T22:29:05.473Z,4.85
2018-09-18T22:31:35.514Z,5.75
2018-09-18T22:34:06.466Z,5.37
2018-09-18T22:36:36.568Z,4.22
2018-09-18T22:39:10.486Z,5.00
2018-09-18T22:41:41.118Z,4.80
2018-09-18T22:44:11.135Z,4.97
2018-09-18T22:46:43.721Z,4.75
2018-09-18T22:49:43.268Z,4.65
2018-09-18T22:52:13.244Z,5.15
2018-09-18T22:54:43.670Z,4.80
2018-09-18T22:57:14.911Z,4.00
2018-09-18T22:59:45.533Z,3.70
2018-09-18T23:02:19.022Z,3.65
2018-09-18T23:04:49.715Z,4.58
2018-09-18T23:07:19.617Z,4.55
2018-09-18T23:09:50.420Z,3.58
2018-09-18T23:12:20.535Z,5.45
2018-09-18T23:14:50.457Z,4.40
2018-09-18T23:17:22.101Z,4.90
2018-09-18T23:19:52.433Z,4.67
2018-09-18T23:22:22.343Z,4.80
2018-09-18T23:24:52.456Z,4.90
2018-09-18T23:27:22.576Z,4.33
2018-09-18T23:29:52.447Z,4.80
2018-09-18T23:32:23.575Z,4.72
2018-09-18T23:34:53.859Z,3.92
2018-09-18T23:37:24.081Z,4.83
2018-09-18T23:39:56.138Z,3.65
2018-09-18T23:42:26.107Z,2.80
2018-09-18T23:44:56.083Z,4.10
2018-09-18T23:47:26.525Z,4.10
2018-09-18T23:49:56.405Z,4.00
2018-09-18T23:52:26.379Z,4.67
2018-09-18T23:54:56.357Z,4.72
2018-09-18T23:57:26.226Z,3.92
2018-09-18T23:59:56.818Z,3.72
